Hartland Point — ZIQS6 — position and weather

sailwx.info

Track history (hours):
 
Tides and Currents Weather Stations Pressure Air Temp Water Temp Dewpoint Dewpoint Depression Visibility Wind Speed Wind Dir Waves Ship Positions

Hartland Point

Last reported at 2014-Aug-26 19:05 UTC. Time now 2014-Oct-01 14:19 UTC.
Position N 50°30' W 001°13'.
Warning: this ship's position is 35 days out of date.

Length 193 m; draft 6.2 m.

Type: Ship. MMSI: 235505000.

Date/timePositionNaut miles runAvg speedWind from/ knotsBaromVisibWave heightAir tempDewpointWater temp
2014-Aug-26 19:05N 50°30' W 001°13'814.9
2014-Aug-26 18:33N 50°34' W 001°02'1211.8
2014-Aug-26 17:33N 50°45' W 001°07'1110.6
2014-Aug-26 16:33N 50°51' W 001°21'4 1.8
2014-Aug-26 14:22N 50°54' W 001°25'0 0.0
2014-Aug-26 12:09N 50°54' W 001°25'0 0.0
2014-Aug-26 11:33N 50°54' W 001°25'0 0.0
2014-Aug-26 10:33N 50°54' W 001°25'0 0.0
2014-Aug-26 08:26N 50°54' W 001°25'0 0.0
2014-Aug-26 07:31N 50°54' W 001°25'0 0.0
2014-Aug-26 06:25N 50°54' W 001°25'0 0.0
2014-Aug-26 05:34N 50°54' W 001°25'0 0.0
2014-Aug-26 04:24N 50°54' W 001°25'0 0.0
2014-Aug-26 03:33N 50°54' W 001°25'0 0.0
2014-Aug-26 02:08N 50°54' W 001°25'0 0.0
2014-Aug-25 19:05N 50°54' W 001°25'0 0.0
2014-Aug-25 18:32N 50°54' W 001°25'0 0.0
2014-Aug-25 17:25N 50°54' W 001°25'0 0.0
2014-Aug-25 16:31N 50°54' W 001°25'0 0.0
2014-Aug-25 14:30N 50°54' W 001°25'0 0.0
2014-Aug-25 12:32N 50°54' W 001°25'0 0.0
2014-Aug-25 07:21N 50°54' W 001°25'0 0.0
2014-Aug-25 06:30N 50°54' W 001°25'0 0.0
2014-Aug-25 05:32N 50°54' W 001°25'0 0.0
2014-Aug-25 01:15N 50°54' W 001°25'0 0.0
2014-Aug-25 00:33N 50°54' W 001°25'0 0.0
2014-Aug-24 23:33N 50°54' W 001°25'0 0.0
2014-Aug-24 22:08N 50°54' W 001°25'0 0.0
2014-Aug-24 18:21N 50°54' W 001°25'0 0.0
2014-Aug-24 17:33N 50°54' W 001°25'0 0.0
2014-Aug-24 14:32N 50°54' W 001°25'0 0.0
2014-Aug-24 13:31N 50°54' W 001°25'0 0.0
2014-Aug-24 12:31N 50°54' W 001°25'0 0.0
2014-Aug-24 11:33N 50°54' W 001°25'0 0.0
2014-Aug-24 10:33N 50°54' W 001°25'0 0.0
2014-Aug-24 09:33N 50°54' W 001°25'0 0.0
2014-Aug-24 08:05N 50°54' W 001°25'0 0.0
2014-Aug-24 07:23N 50°54' W 001°25'0 0.0
2014-Aug-24 06:34N 50°54' W 001°25'0 0.0
2014-Aug-24 05:28N 50°54' W 001°25'0 0.0
2014-Aug-24 04:33N 50°54' W 001°25'0 0.0
2014-Aug-24 03:33N 50°54' W 001°25'0 0.0
2014-Aug-24 00:08N 50°54' W 001°25'0 0.0
2014-Aug-23 22:31N 50°54' W 001°25'0 0.0
2014-Aug-23 21:18N 50°54' W 001°25'0 0.0
2014-Aug-23 20:30N 50°54' W 001°25'0 0.0
2014-Aug-23 19:33N 50°54' W 001°25'0 0.0
2014-Aug-23 03:29N 50°54' W 001°25'0 0.0
2014-Aug-23 02:10N 50°54' W 001°25'0 0.0
2014-Aug-23 00:21N 50°54' W 001°25'0 0.0
2014-Aug-22 21:14N 50°54' W 001°25'0 0.0
2014-Aug-22 20:26N 50°54' W 001°25'0 0.0
2014-Aug-22 19:13N 50°54' W 001°25'0 0.0
2014-Aug-22 17:06N 50°54' W 001°25'0 0.0
2014-Aug-22 16:21N 50°54' W 001°25'0 0.0
2014-Aug-22 15:29N 50°54' W 001°25'0 0.0
2014-Aug-22 12:19N 50°54' W 001°25'0 0.0
2014-Aug-22 11:28N 50°54' W 001°25'0 0.0
2014-Aug-22 10:33N 50°54' W 001°25'2 2.4
2014-Aug-22 09:33N 50°52' W 001°22'8 7.5
2014-Aug-22 08:32N 50°47' W 001°13'0 0.0
2014-Aug-22 07:31N 50°47' W 001°13'0 0.0
2014-Aug-22 06:31N 50°47' W 001°13'0 0.0
2014-Aug-22 05:33N 50°47' W 001°13'7 7.2
2014-Aug-22 04:33N 50°52' W 001°22'3 2.6
2014-Aug-22 03:26N 50°54' W 001°25'0 0.0
2014-Aug-22 02:29N 50°54' W 001°25'0 0.0
2014-Aug-22 01:19N 50°54' W 001°25'0 0.0
2014-Aug-21 23:30N 50°54' W 001°25'0 0.0
2014-Aug-21 22:33N 50°54' W 001°25'0 0.0
2014-Aug-21 21:32N 50°54' W 001°25'0 0.0
2014-Aug-21 20:32N 50°54' W 001°25'0 0.0
2014-Aug-21 19:32N 50°54' W 001°25'0 0.0
2014-Aug-21 18:33N 50°54' W 001°25'0 0.0
2014-Aug-21 17:33N 50°54' W 001°25'0 0.0
2014-Aug-21 16:33N 50°54' W 001°25'0 0.0
2014-Aug-21 15:34N 50°54' W 001°25'0 0.0
2014-Aug-21 14:33N 50°54' W 001°25'0 0.0
2014-Aug-21 13:33N 50°54' W 001°25'0 0.0
2014-Aug-21 12:33N 50°54' W 001°25'0 0.0
2014-Aug-21 11:33N 50°54' W 001°25'0 0.0
2014-Aug-21 10:33N 50°54' W 001°25'0 0.0
2014-Aug-21 09:20N 50°54' W 001°25'0 0.0
2014-Aug-21 08:31N 50°54' W 001°25'0 0.0
2014-Aug-21 07:31N 50°54' W 001°25'0 0.1
2014-Aug-21 06:32N 50°54' W 001°25'8 8.4
2014-Aug-21 05:33N 50°48' W 001°16'1413.8
2014-Aug-21 04:34N 50°40' W 000°58'1212.1
2014-Aug-21 03:33N 50°28' W 001°02'1414.3
2014-Aug-21 02:33N 50°25' W 001°24'  
2014-Aug-18 08:19N 36°51' W 009°24'1216.0
2014-Aug-18 07:33N 36°42' W 009°14'1615.7
2014-Aug-18 06:33N 36°38' W 008°55'  
Track history (hours):
 
Tides and Currents Weather Stations Pressure Air Temp Water Temp Dewpoint Dewpoint Depression Visibility Wind Speed Wind Dir Waves Ship Positions

Hartland Point

Last reported at 2014-Aug-26 19:05 UTC. Time now 2014-Oct-01 14:19 UTC.
Position N 50°30' W 001°13'.
Warning: this ship's position is 35 days out of date.

Length 193 m; draft 6.2 m.

Type: Ship. MMSI: 235505000.

Date/timePositionNaut miles runAvg speedWind from/ knotsBaromVisibWave heightAir tempDewpointWater temp
2014-Aug-26 19:05N 50°30' W 001°13'814.9
2014-Aug-26 18:33N 50°34' W 001°02'1211.8
2014-Aug-26 17:33N 50°45' W 001°07'1110.6
2014-Aug-26 16:33N 50°51' W 001°21'4 1.8
2014-Aug-26 14:22N 50°54' W 001°25'0 0.0
2014-Aug-26 12:09N 50°54' W 001°25'0 0.0
2014-Aug-26 11:33N 50°54' W 001°25'0 0.0
2014-Aug-26 10:33N 50°54' W 001°25'0 0.0
2014-Aug-26 08:26N 50°54' W 001°25'0 0.0
2014-Aug-26 07:31N 50°54' W 001°25'0 0.0
2014-Aug-26 06:25N 50°54' W 001°25'0 0.0
2014-Aug-26 05:34N 50°54' W 001°25'0 0.0
2014-Aug-26 04:24N 50°54' W 001°25'0 0.0
2014-Aug-26 03:33N 50°54' W 001°25'0 0.0
2014-Aug-26 02:08N 50°54' W 001°25'0 0.0
2014-Aug-25 19:05N 50°54' W 001°25'0 0.0
2014-Aug-25 18:32N 50°54' W 001°25'0 0.0
2014-Aug-25 17:25N 50°54' W 001°25'0 0.0
2014-Aug-25 16:31N 50°54' W 001°25'0 0.0
2014-Aug-25 14:30N 50°54' W 001°25'0 0.0
2014-Aug-25 12:32N 50°54' W 001°25'0 0.0
2014-Aug-25 07:21N 50°54' W 001°25'0 0.0
2014-Aug-25 06:30N 50°54' W 001°25'0 0.0
2014-Aug-25 05:32N 50°54' W 001°25'0 0.0
2014-Aug-25 01:15N 50°54' W 001°25'0 0.0
2014-Aug-25 00:33N 50°54' W 001°25'0 0.0
2014-Aug-24 23:33N 50°54' W 001°25'0 0.0
2014-Aug-24 22:08N 50°54' W 001°25'0 0.0
2014-Aug-24 18:21N 50°54' W 001°25'0 0.0
2014-Aug-24 17:33N 50°54' W 001°25'0 0.0
2014-Aug-24 14:32N 50°54' W 001°25'0 0.0
2014-Aug-24 13:31N 50°54' W 001°25'0 0.0
2014-Aug-24 12:31N 50°54' W 001°25'0 0.0
2014-Aug-24 11:33N 50°54' W 001°25'0 0.0
2014-Aug-24 10:33N 50°54' W 001°25'0 0.0
2014-Aug-24 09:33N 50°54' W 001°25'0 0.0
2014-Aug-24 08:05N 50°54' W 001°25'0 0.0
2014-Aug-24 07:23N 50°54' W 001°25'0 0.0
2014-Aug-24 06:34N 50°54' W 001°25'0 0.0
2014-Aug-24 05:28N 50°54' W 001°25'0 0.0
2014-Aug-24 04:33N 50°54' W 001°25'0 0.0
2014-Aug-24 03:33N 50°54' W 001°25'0 0.0
2014-Aug-24 00:08N 50°54' W 001°25'0 0.0
2014-Aug-23 22:31N 50°54' W 001°25'0 0.0
2014-Aug-23 21:18N 50°54' W 001°25'0 0.0
2014-Aug-23 20:30N 50°54' W 001°25'0 0.0
2014-Aug-23 19:33N 50°54' W 001°25'0 0.0
2014-Aug-23 03:29N 50°54' W 001°25'0 0.0
2014-Aug-23 02:10N 50°54' W 001°25'0 0.0
2014-Aug-23 00:21N 50°54' W 001°25'0 0.0
2014-Aug-22 21:14N 50°54' W 001°25'0 0.0
2014-Aug-22 20:26N 50°54' W 001°25'0 0.0
2014-Aug-22 19:13N 50°54' W 001°25'0 0.0
2014-Aug-22 17:06N 50°54' W 001°25'0 0.0
2014-Aug-22 16:21N 50°54' W 001°25'0 0.0
2014-Aug-22 15:29N 50°54' W 001°25'0 0.0
2014-Aug-22 12:19N 50°54' W 001°25'0 0.0
2014-Aug-22 11:28N 50°54' W 001°25'0 0.0
2014-Aug-22 10:33N 50°54' W 001°25'2 2.4
2014-Aug-22 09:33N 50°52' W 001°22'8 7.5
2014-Aug-22 08:32N 50°47' W 001°13'0 0.0
2014-Aug-22 07:31N 50°47' W 001°13'0 0.0
2014-Aug-22 06:31N 50°47' W 001°13'0 0.0
2014-Aug-22 05:33N 50°47' W 001°13'7 7.2
2014-Aug-22 04:33N 50°52' W 001°22'3 2.6
2014-Aug-22 03:26N 50°54' W 001°25'0 0.0
2014-Aug-22 02:29N 50°54' W 001°25'0 0.0
2014-Aug-22 01:19N 50°54' W 001°25'0 0.0
2014-Aug-21 23:30N 50°54' W 001°25'0 0.0
2014-Aug-21 22:33N 50°54' W 001°25'0 0.0
2014-Aug-21 21:32N 50°54' W 001°25'0 0.0
2014-Aug-21 20:32N 50°54' W 001°25'0 0.0
2014-Aug-21 19:32N 50°54' W 001°25'0 0.0
2014-Aug-21 18:33N 50°54' W 001°25'0 0.0
2014-Aug-21 17:33N 50°54' W 001°25'0 0.0
2014-Aug-21 16:33N 50°54' W 001°25'0 0.0
2014-Aug-21 15:34N 50°54' W 001°25'0 0.0
2014-Aug-21 14:33N 50°54' W 001°25'0 0.0
2014-Aug-21 13:33N 50°54' W 001°25'0 0.0
2014-Aug-21 12:33N 50°54' W 001°25'0 0.0
2014-Aug-21 11:33N 50°54' W 001°25'0 0.0
2014-Aug-21 10:33N 50°54' W 001°25'0 0.0
2014-Aug-21 09:20N 50°54' W 001°25'0 0.0
2014-Aug-21 08:31N 50°54' W 001°25'0 0.0
2014-Aug-21 07:31N 50°54' W 001°25'0 0.1
2014-Aug-21 06:32N 50°54' W 001°25'8 8.4
2014-Aug-21 05:33N 50°48' W 001°16'1413.8
2014-Aug-21 04:34N 50°40' W 000°58'1212.1
2014-Aug-21 03:33N 50°28' W 001°02'1414.3
2014-Aug-21 02:33N 50°25' W 001°24'  
2014-Aug-18 08:19N 36°51' W 009°24'1216.0
2014-Aug-18 07:33N 36°42' W 009°14'1615.7
2014-Aug-18 06:33N 36°38' W 008°55'  

Dump ship's entire track history